sensor_id;sensor_type;location;lat;lon;timestamp;P1;durP1;ratioP1;P2;durP2;ratioP2
14883;SDS011;7534;50.762;7.000;2022-12-10T00:01:04;34.47;;;18.53;;
14883;SDS011;7534;50.762;7.000;2022-12-10T00:03:36;39.80;;;20.00;;
14883;SDS011;7534;50.762;7.000;2022-12-10T00:06:03;40.13;;;20.73;;
14883;SDS011;7534;50.762;7.000;2022-12-10T00:08:32;37.93;;;20.00;;
14883;SDS011;7534;50.762;7.000;2022-12-10T00:10:58;37.67;;;19.40;;
14883;SDS011;7534;50.762;7.000;2022-12-10T00:13:24;42.13;;;20.20;;
14883;SDS011;7534;50.762;7.000;2022-12-10T00:15:50;37.30;;;19.20;;
14883;SDS011;7534;50.762;7.000;2022-12-10T00:18:15;35.97;;;19.30;;
14883;SDS011;7534;50.762;7.000;2022-12-10T00:20:41;38.83;;;20.80;;
14883;SDS011;7534;50.762;7.000;2022-12-10T00:23:08;34.63;;;19.47;;
14883;SDS011;7534;50.762;7.000;2022-12-10T00:25:33;36.53;;;19.93;;
14883;SDS011;7534;50.762;7.000;2022-12-10T00:27:59;40.77;;;20.70;;
14883;SDS011;7534;50.762;7.000;2022-12-10T00:30:26;44.70;;;20.57;;
14883;SDS011;7534;50.762;7.000;2022-12-10T00:32:51;42.10;;;21.63;;
14883;SDS011;7534;50.762;7.000;2022-12-10T00:35:17;41.13;;;20.33;;
14883;SDS011;7534;50.762;7.000;2022-12-10T00:37:43;38.43;;;19.83;;
14883;SDS011;7534;50.762;7.000;2022-12-10T00:40:09;40.90;;;20.83;;
14883;SDS011;7534;50.762;7.000;2022-12-10T00:42:37;36.03;;;18.47;;
14883;SDS011;7534;50.762;7.000;2022-12-10T00:45:03;36.63;;;19.53;;
14883;SDS011;7534;50.762;7.000;2022-12-10T00:47:29;34.17;;;18.70;;
14883;SDS011;7534;50.762;7.000;2022-12-10T00:49:56;35.57;;;18.73;;
14883;SDS011;7534;50.762;7.000;2022-12-10T00:52:23;32.30;;;19.13;;
14883;SDS011;7534;50.762;7.000;2022-12-10T00:54:49;34.63;;;19.20;;
14883;SDS011;7534;50.762;7.000;2022-12-10T00:57:15;35.37;;;19.87;;
14883;SDS011;7534;50.762;7.000;2022-12-10T00:59:42;33.73;;;18.97;;
14883;SDS011;7534;50.762;7.000;2022-12-10T01:02:08;35.63;;;19.63;;
14883;SDS011;7534;50.762;7.000;2022-12-10T01:04:34;33.63;;;19.07;;
14883;SDS011;7534;50.762;7.000;2022-12-10T01:09:30;38.07;;;19.57;;
14883;SDS011;7534;50.762;7.000;2022-12-10T01:11:57;36.50;;;19.57;;
14883;SDS011;7534;50.762;7.000;2022-12-10T01:14:28;32.90;;;18.83;;
14883;SDS011;7534;50.762;7.000;2022-12-10T01:17:00;31.93;;;18.10;;
14883;SDS011;7534;50.762;7.000;2022-12-10T01:19:29;35.10;;;18.60;;
14883;SDS011;7534;50.762;7.000;2022-12-10T01:21:57;34.63;;;18.97;;
14883;SDS011;7534;50.762;7.000;2022-12-10T01:24:25;37.73;;;20.07;;
14883;SDS011;7534;50.762;7.000;2022-12-10T01:26:52;45.47;;;23.40;;
14883;SDS011;7534;50.762;7.000;2022-12-10T01:29:22;52.83;;;22.87;;
14883;SDS011;7534;50.762;7.000;2022-12-10T01:31:50;38.70;;;20.60;;
14883;SDS011;7534;50.762;7.000;2022-12-10T01:34:18;40.20;;;20.63;;
14883;SDS011;7534;50.762;7.000;2022-12-10T01:36:44;43.67;;;21.70;;
14883;SDS011;7534;50.762;7.000;2022-12-10T01:39:15;32.47;;;19.93;;
14883;SDS011;7534;50.762;7.000;2022-12-10T01:41:47;43.03;;;21.73;;
14883;SDS011;7534;50.762;7.000;2022-12-10T01:46:47;36.70;;;20.23;;
14883;SDS011;7534;50.762;7.000;2022-12-10T01:49:20;38.17;;;19.23;;
14883;SDS011;7534;50.762;7.000;2022-12-10T01:51:51;39.73;;;20.60;;
14883;SDS011;7534;50.762;7.000;2022-12-10T01:54:22;42.93;;;20.30;;
14883;SDS011;7534;50.762;7.000;2022-12-10T01:56:56;68.10;;;23.40;;
14883;SDS011;7534;50.762;7.000;2022-12-10T01:59:35;66.23;;;24.97;;
14883;SDS011;7534;50.762;7.000;2022-12-10T02:02:18;48.90;;;22.37;;
14883;SDS011;7534;50.762;7.000;2022-12-10T02:07:59;56.70;;;24.23;;
14883;SDS011;7534;50.762;7.000;2022-12-10T02:11:12;56.73;;;22.93;;
14883;SDS011;7534;50.762;7.000;2022-12-10T02:14:13;57.87;;;22.70;;
14883;SDS011;7534;50.762;7.000;2022-12-10T02:17:01;50.10;;;21.87;;
14883;SDS011;7534;50.762;7.000;2022-12-10T02:22:42;70.73;;;23.57;;
14883;SDS011;7534;50.762;7.000;2022-12-10T02:25:15;56.20;;;23.83;;
14883;SDS011;7534;50.762;7.000;2022-12-10T02:30:26;53.30;;;23.87;;
14883;SDS011;7534;50.762;7.000;2022-12-10T02:32:55;50.50;;;23.87;;
14883;SDS011;7534;50.762;7.000;2022-12-10T02:35:26;46.63;;;21.87;;
14883;SDS011;7534;50.762;7.000;2022-12-10T02:37:56;54.77;;;23.80;;
14883;SDS011;7534;50.762;7.000;2022-12-10T02:40:32;61.33;;;24.27;;
14883;SDS011;7534;50.762;7.000;2022-12-10T02:43:01;83.20;;;24.23;;
14883;SDS011;7534;50.762;7.000;2022-12-10T02:45:28;88.90;;;24.27;;
14883;SDS011;7534;50.762;7.000;2022-12-10T02:47:57;54.97;;;23.30;;
14883;SDS011;7534;50.762;7.000;2022-12-10T02:50:25;50.00;;;22.17;;
14883;SDS011;7534;50.762;7.000;2022-12-10T02:52:52;58.03;;;23.10;;
14883;SDS011;7534;50.762;7.000;2022-12-10T02:55:18;59.83;;;24.57;;
14883;SDS011;7534;50.762;7.000;2022-12-10T03:00:48;46.87;;;23.27;;
14883;SDS011;7534;50.762;7.000;2022-12-10T03:03:43;41.97;;;23.07;;
14883;SDS011;7534;50.762;7.000;2022-12-10T03:06:35;41.33;;;21.27;;
14883;SDS011;7534;50.762;7.000;2022-12-10T03:11:54;39.23;;;20.83;;
14883;SDS011;7534;50.762;7.000;2022-12-10T03:14:31;46.00;;;23.10;;
14883;SDS011;7534;50.762;7.000;2022-12-10T03:17:00;54.03;;;22.87;;
14883;SDS011;7534;50.762;7.000;2022-12-10T03:19:37;40.63;;;22.23;;
14883;SDS011;7534;50.762;7.000;2022-12-10T03:22:12;46.00;;;21.90;;
14883;SDS011;7534;50.762;7.000;2022-12-10T03:24:42;44.07;;;22.60;;
14883;SDS011;7534;50.762;7.000;2022-12-10T03:27:09;39.80;;;21.33;;
14883;SDS011;7534;50.762;7.000;2022-12-10T03:29:39;42.20;;;22.33;;
14883;SDS011;7534;50.762;7.000;2022-12-10T03:32:11;42.67;;;21.07;;
14883;SDS011;7534;50.762;7.000;2022-12-10T03:34:41;43.20;;;20.80;;
14883;SDS011;7534;50.762;7.000;2022-12-10T03:37:09;36.63;;;20.83;;
14883;SDS011;7534;50.762;7.000;2022-12-10T03:39:37;46.77;;;21.40;;
14883;SDS011;7534;50.762;7.000;2022-12-10T03:42:04;47.77;;;22.27;;
14883;SDS011;7534;50.762;7.000;2022-12-10T03:44:32;38.70;;;20.87;;
14883;SDS011;7534;50.762;7.000;2022-12-10T03:47:00;51.80;;;23.23;;
14883;SDS011;7534;50.762;7.000;2022-12-10T03:49:28;50.47;;;23.90;;
14883;SDS011;7534;50.762;7.000;2022-12-10T03:51:54;48.37;;;22.83;;
14883;SDS011;7534;50.762;7.000;2022-12-10T03:54:20;44.57;;;23.10;;
14883;SDS011;7534;50.762;7.000;2022-12-10T03:56:47;51.63;;;23.73;;
14883;SDS011;7534;50.762;7.000;2022-12-10T03:59:13;42.83;;;22.10;;
14883;SDS011;7534;50.762;7.000;2022-12-10T04:01:39;53.33;;;23.37;;
14883;SDS011;7534;50.762;7.000;2022-12-10T04:04:06;50.90;;;24.57;;
14883;SDS011;7534;50.762;7.000;2022-12-10T04:06:32;50.03;;;25.17;;
14883;SDS011;7534;50.762;7.000;2022-12-10T04:08:58;50.17;;;23.03;;
14883;SDS011;7534;50.762;7.000;2022-12-10T04:11:24;48.03;;;23.43;;
14883;SDS011;7534;50.762;7.000;2022-12-10T04:13:51;52.47;;;24.87;;
14883;SDS011;7534;50.762;7.000;2022-12-10T04:16:36;52.13;;;23.97;;
14883;SDS011;7534;50.762;7.000;2022-12-10T04:19:07;50.17;;;23.40;;
14883;SDS011;7534;50.762;7.000;2022-12-10T04:21:40;51.17;;;23.80;;
14883;SDS011;7534;50.762;7.000;2022-12-10T04:24:27;45.17;;;21.70;;
14883;SDS011;7534;50.762;7.000;2022-12-10T04:27:20;47.63;;;23.43;;
14883;SDS011;7534;50.762;7.000;2022-12-10T04:29:59;51.40;;;24.33;;
14883;SDS011;7534;50.762;7.000;2022-12-10T04:32:44;51.33;;;24.10;;
14883;SDS011;7534;50.762;7.000;2022-12-10T04:35:09;55.23;;;23.73;;
14883;SDS011;7534;50.762;7.000;2022-12-10T04:37:35;50.37;;;24.30;;
14883;SDS011;7534;50.762;7.000;2022-12-10T04:40:02;52.03;;;23.50;;
14883;SDS011;7534;50.762;7.000;2022-12-10T04:42:30;49.40;;;22.63;;
14883;SDS011;7534;50.762;7.000;2022-12-10T04:44:56;48.07;;;23.77;;
14883;SDS011;7534;50.762;7.000;2022-12-10T04:47:22;53.13;;;23.60;;
14883;SDS011;7534;50.762;7.000;2022-12-10T04:49:48;50.33;;;24.33;;
14883;SDS011;7534;50.762;7.000;2022-12-10T04:52:15;48.47;;;23.77;;
14883;SDS011;7534;50.762;7.000;2022-12-10T04:54:42;82.03;;;47.87;;
14883;SDS011;7534;50.762;7.000;2022-12-10T04:57:09;47.73;;;24.03;;
14883;SDS011;7534;50.762;7.000;2022-12-10T04:59:36;47.77;;;23.53;;
14883;SDS011;7534;50.762;7.000;2022-12-10T05:02:04;46.13;;;23.93;;
14883;SDS011;7534;50.762;7.000;2022-12-10T05:04:30;52.20;;;24.73;;
14883;SDS011;7534;50.762;7.000;2022-12-10T05:06:56;48.30;;;23.27;;
14883;SDS011;7534;50.762;7.000;2022-12-10T05:09:22;50.43;;;24.50;;
14883;SDS011;7534;50.762;7.000;2022-12-10T05:11:47;45.00;;;23.57;;
14883;SDS011;7534;50.762;7.000;2022-12-10T05:14:14;52.53;;;23.47;;
14883;SDS011;7534;50.762;7.000;2022-12-10T05:16:41;56.37;;;26.03;;
14883;SDS011;7534;50.762;7.000;2022-12-10T05:19:07;61.20;;;27.13;;
14883;SDS011;7534;50.762;7.000;2022-12-10T05:21:35;51.27;;;24.50;;
14883;SDS011;7534;50.762;7.000;2022-12-10T05:24:21;60.10;;;26.30;;
14883;SDS011;7534;50.762;7.000;2022-12-10T05:26:47;55.97;;;24.33;;
14883;SDS011;7534;50.762;7.000;2022-12-10T05:29:18;50.73;;;23.80;;
14883;SDS011;7534;50.762;7.000;2022-12-10T05:31:49;51.77;;;24.57;;
14883;SDS011;7534;50.762;7.000;2022-12-10T05:34:15;49.90;;;23.23;;
14883;SDS011;7534;50.762;7.000;2022-12-10T05:36:42;59.17;;;25.20;;
14883;SDS011;7534;50.762;7.000;2022-12-10T05:39:07;58.13;;;26.50;;
14883;SDS011;7534;50.762;7.000;2022-12-10T05:41:36;52.93;;;24.57;;
14883;SDS011;7534;50.762;7.000;2022-12-10T05:44:04;53.67;;;25.47;;
14883;SDS011;7534;50.762;7.000;2022-12-10T05:46:33;58.17;;;28.50;;
14883;SDS011;7534;50.762;7.000;2022-12-10T05:49:00;51.40;;;24.43;;
14883;SDS011;7534;50.762;7.000;2022-12-10T05:51:30;58.47;;;24.90;;
14883;SDS011;7534;50.762;7.000;2022-12-10T05:53:59;55.30;;;24.63;;
14883;SDS011;7534;50.762;7.000;2022-12-10T05:56:26;54.70;;;25.60;;
14883;SDS011;7534;50.762;7.000;2022-12-10T05:58:53;50.43;;;25.50;;
14883;SDS011;7534;50.762;7.000;2022-12-10T06:01:24;50.07;;;22.90;;
14883;SDS011;7534;50.762;7.000;2022-12-10T06:03:56;53.10;;;25.47;;
14883;SDS011;7534;50.762;7.000;2022-12-10T06:06:28;52.80;;;24.03;;
14883;SDS011;7534;50.762;7.000;2022-12-10T06:08:57;53.53;;;25.23;;
14883;SDS011;7534;50.762;7.000;2022-12-10T06:11:24;60.83;;;27.00;;
14883;SDS011;7534;50.762;7.000;2022-12-10T06:13:51;49.20;;;23.93;;
14883;SDS011;7534;50.762;7.000;2022-12-10T06:16:17;56.33;;;25.33;;
14883;SDS011;7534;50.762;7.000;2022-12-10T06:18:43;52.87;;;25.27;;
14883;SDS011;7534;50.762;7.000;2022-12-10T06:21:10;50.03;;;25.93;;
14883;SDS011;7534;50.762;7.000;2022-12-10T06:23:39;53.50;;;25.40;;
14883;SDS011;7534;50.762;7.000;2022-12-10T06:26:16;50.97;;;24.67;;
14883;SDS011;7534;50.762;7.000;2022-12-10T06:28:47;49.70;;;25.87;;
14883;SDS011;7534;50.762;7.000;2022-12-10T06:31:14;43.50;;;23.50;;
14883;SDS011;7534;50.762;7.000;2022-12-10T06:33:40;54.97;;;25.97;;
14883;SDS011;7534;50.762;7.000;2022-12-10T06:36:08;43.83;;;22.27;;
14883;SDS011;7534;50.762;7.000;2022-12-10T06:38:36;43.77;;;22.90;;
14883;SDS011;7534;50.762;7.000;2022-12-10T06:41:04;39.37;;;20.73;;
14883;SDS011;7534;50.762;7.000;2022-12-10T06:43:32;34.27;;;20.17;;
14883;SDS011;7534;50.762;7.000;2022-12-10T06:46:04;37.80;;;20.53;;
14883;SDS011;7534;50.762;7.000;2022-12-10T06:48:32;36.57;;;20.20;;
14883;SDS011;7534;50.762;7.000;2022-12-10T06:50:58;36.60;;;20.63;;
14883;SDS011;7534;50.762;7.000;2022-12-10T06:53:23;37.80;;;20.47;;
14883;SDS011;7534;50.762;7.000;2022-12-10T06:55:49;38.13;;;20.57;;
14883;SDS011;7534;50.762;7.000;2022-12-10T06:58:15;39.97;;;20.67;;
14883;SDS011;7534;50.762;7.000;2022-12-10T07:00:40;35.07;;;20.10;;
14883;SDS011;7534;50.762;7.000;2022-12-10T07:03:06;36.90;;;20.23;;
14883;SDS011;7534;50.762;7.000;2022-12-10T07:05:31;41.57;;;20.73;;
14883;SDS011;7534;50.762;7.000;2022-12-10T07:07:57;42.50;;;20.80;;
14883;SDS011;7534;50.762;7.000;2022-12-10T07:10:23;39.07;;;20.73;;
14883;SDS011;7534;50.762;7.000;2022-12-10T07:12:49;41.13;;;21.20;;
14883;SDS011;7534;50.762;7.000;2022-12-10T07:15:14;41.17;;;21.67;;
14883;SDS011;7534;50.762;7.000;2022-12-10T07:17:40;37.67;;;19.93;;
14883;SDS011;7534;50.762;7.000;2022-12-10T07:20:06;41.20;;;21.50;;
14883;SDS011;7534;50.762;7.000;2022-12-10T07:22:33;39.47;;;20.20;;
14883;SDS011;7534;50.762;7.000;2022-12-10T07:24:59;37.40;;;19.87;;
14883;SDS011;7534;50.762;7.000;2022-12-10T07:27:25;38.80;;;20.70;;
14883;SDS011;7534;50.762;7.000;2022-12-10T07:29:50;36.73;;;20.33;;
14883;SDS011;7534;50.762;7.000;2022-12-10T07:32:16;40.03;;;21.23;;
14883;SDS011;7534;50.762;7.000;2022-12-10T07:34:42;40.93;;;21.10;;
14883;SDS011;7534;50.762;7.000;2022-12-10T07:37:08;40.80;;;21.53;;
14883;SDS011;7534;50.762;7.000;2022-12-10T07:39:33;40.63;;;21.47;;
14883;SDS011;7534;50.762;7.000;2022-12-10T07:42:01;44.83;;;23.17;;
14883;SDS011;7534;50.762;7.000;2022-12-10T07:44:27;48.73;;;23.57;;
14883;SDS011;7534;50.762;7.000;2022-12-10T07:46:53;42.83;;;22.83;;
14883;SDS011;7534;50.762;7.000;2022-12-10T07:49:20;45.63;;;23.60;;
14883;SDS011;7534;50.762;7.000;2022-12-10T07:51:47;44.53;;;23.50;;
14883;SDS011;7534;50.762;7.000;2022-12-10T07:54:15;43.13;;;23.00;;
14883;SDS011;7534;50.762;7.000;2022-12-10T07:56:41;39.73;;;21.93;;
14883;SDS011;7534;50.762;7.000;2022-12-10T07:59:08;44.07;;;21.73;;
14883;SDS011;7534;50.762;7.000;2022-12-10T08:01:34;43.43;;;22.40;;
14883;SDS011;7534;50.762;7.000;2022-12-10T08:04:00;38.93;;;21.20;;
14883;SDS011;7534;50.762;7.000;2022-12-10T08:06:27;40.97;;;21.40;;
14883;SDS011;7534;50.762;7.000;2022-12-10T08:08:54;39.77;;;21.10;;
14883;SDS011;7534;50.762;7.000;2022-12-10T08:11:22;44.77;;;21.70;;
14883;SDS011;7534;50.762;7.000;2022-12-10T08:13:48;44.50;;;22.40;;
14883;SDS011;7534;50.762;7.000;2022-12-10T08:16:17;46.23;;;23.77;;
14883;SDS011;7534;50.762;7.000;2022-12-10T08:18:47;43.23;;;22.37;;
14883;SDS011;7534;50.762;7.000;2022-12-10T08:21:18;39.60;;;21.07;;
14883;SDS011;7534;50.762;7.000;2022-12-10T08:23:47;40.07;;;20.83;;
14883;SDS011;7534;50.762;7.000;2022-12-10T08:26:14;41.43;;;22.97;;
14883;SDS011;7534;50.762;7.000;2022-12-10T08:28:44;45.97;;;22.80;;
14883;SDS011;7534;50.762;7.000;2022-12-10T08:31:11;43.97;;;23.13;;
14883;SDS011;7534;50.762;7.000;2022-12-10T08:33:39;42.97;;;22.80;;
14883;SDS011;7534;50.762;7.000;2022-12-10T08:36:06;43.17;;;24.17;;
14883;SDS011;7534;50.762;7.000;2022-12-10T08:38:35;44.60;;;24.03;;
14883;SDS011;7534;50.762;7.000;2022-12-10T08:41:08;44.53;;;22.50;;
14883;SDS011;7534;50.762;7.000;2022-12-10T08:43:44;39.93;;;22.37;;
14883;SDS011;7534;50.762;7.000;2022-12-10T08:46:11;43.80;;;22.60;;
14883;SDS011;7534;50.762;7.000;2022-12-10T08:48:39;45.23;;;22.33;;
14883;SDS011;7534;50.762;7.000;2022-12-10T08:51:06;42.13;;;23.30;;
14883;SDS011;7534;50.762;7.000;2022-12-10T08:53:34;42.50;;;22.70;;
14883;SDS011;7534;50.762;7.000;2022-12-10T08:56:00;44.93;;;22.10;;
14883;SDS011;7534;50.762;7.000;2022-12-10T08:58:26;37.73;;;21.37;;
14883;SDS011;7534;50.762;7.000;2022-12-10T09:00:51;40.17;;;22.20;;
14883;SDS011;7534;50.762;7.000;2022-12-10T09:03:17;43.53;;;21.77;;
14883;SDS011;7534;50.762;7.000;2022-12-10T09:05:43;46.40;;;23.40;;
14883;SDS011;7534;50.762;7.000;2022-12-10T09:08:09;40.20;;;22.23;;
14883;SDS011;7534;50.762;7.000;2022-12-10T09:10:38;41.73;;;23.07;;
14883;SDS011;7534;50.762;7.000;2022-12-10T09:13:06;34.23;;;20.37;;
14883;SDS011;7534;50.762;7.000;2022-12-10T09:15:32;38.43;;;21.30;;
14883;SDS011;7534;50.762;7.000;2022-12-10T09:17:58;40.40;;;22.37;;
14883;SDS011;7534;50.762;7.000;2022-12-10T09:20:24;37.80;;;21.03;;
14883;SDS011;7534;50.762;7.000;2022-12-10T09:22:50;37.70;;;21.23;;
14883;SDS011;7534;50.762;7.000;2022-12-10T09:25:15;37.87;;;21.23;;
14883;SDS011;7534;50.762;7.000;2022-12-10T09:27:42;38.60;;;21.27;;
14883;SDS011;7534;50.762;7.000;2022-12-10T09:30:09;37.30;;;20.37;;
14883;SDS011;7534;50.762;7.000;2022-12-10T09:32:36;35.47;;;21.03;;
14883;SDS011;7534;50.762;7.000;2022-12-10T09:35:02;43.30;;;20.80;;
14883;SDS011;7534;50.762;7.000;2022-12-10T09:37:28;37.60;;;21.50;;
14883;SDS011;7534;50.762;7.000;2022-12-10T09:39:54;37.90;;;21.10;;
14883;SDS011;7534;50.762;7.000;2022-12-10T09:45:26;36.13;;;20.70;;
14883;SDS011;7534;50.762;7.000;2022-12-10T09:48:29;36.80;;;19.93;;
14883;SDS011;7534;50.762;7.000;2022-12-10T09:51:19;37.33;;;19.97;;
14883;SDS011;7534;50.762;7.000;2022-12-10T09:53:53;38.03;;;21.77;;
14883;SDS011;7534;50.762;7.000;2022-12-10T09:56:29;35.73;;;20.03;;
14883;SDS011;7534;50.762;7.000;2022-12-10T09:59:02;35.43;;;20.27;;
14883;SDS011;7534;50.762;7.000;2022-12-10T10:01:41;37.70;;;21.33;;
14883;SDS011;7534;50.762;7.000;2022-12-10T10:04:09;35.73;;;19.87;;
14883;SDS011;7534;50.762;7.000;2022-12-10T10:06:35;34.60;;;19.67;;
14883;SDS011;7534;50.762;7.000;2022-12-10T10:09:02;36.30;;;23.57;;
14883;SDS011;7534;50.762;7.000;2022-12-10T10:11:32;30.20;;;18.60;;
14883;SDS011;7534;50.762;7.000;2022-12-10T10:14:01;27.63;;;17.07;;
14883;SDS011;7534;50.762;7.000;2022-12-10T10:16:51;29.73;;;18.57;;
14883;SDS011;7534;50.762;7.000;2022-12-10T10:19:33;23.80;;;14.03;;
14883;SDS011;7534;50.762;7.000;2022-12-10T10:22:02;21.90;;;13.03;;
14883;SDS011;7534;50.762;7.000;2022-12-10T10:24:34;21.13;;;13.43;;
14883;SDS011;7534;50.762;7.000;2022-12-10T10:27:10;22.97;;;14.00;;
14883;SDS011;7534;50.762;7.000;2022-12-10T10:29:44;19.87;;;12.80;;
14883;SDS011;7534;50.762;7.000;2022-12-10T10:32:15;22.53;;;13.53;;
14883;SDS011;7534;50.762;7.000;2022-12-10T10:34:46;23.57;;;13.00;;
14883;SDS011;7534;50.762;7.000;2022-12-10T10:37:40;21.13;;;12.50;;
14883;SDS011;7534;50.762;7.000;2022-12-10T10:40:30;19.47;;;12.57;;
14883;SDS011;7534;50.762;7.000;2022-12-10T10:42:59;23.53;;;13.57;;
14883;SDS011;7534;50.762;7.000;2022-12-10T10:45:39;24.03;;;14.10;;
14883;SDS011;7534;50.762;7.000;2022-12-10T10:50:55;23.90;;;13.93;;
14883;SDS011;7534;50.762;7.000;2022-12-10T10:53:46;26.97;;;14.57;;
14883;SDS011;7534;50.762;7.000;2022-12-10T10:56:38;22.63;;;13.87;;
14883;SDS011;7534;50.762;7.000;2022-12-10T10:59:23;23.07;;;14.10;;
14883;SDS011;7534;50.762;7.000;2022-12-10T11:05:07;26.93;;;13.63;;
14883;SDS011;7534;50.762;7.000;2022-12-10T11:07:44;23.73;;;12.67;;
14883;SDS011;7534;50.762;7.000;2022-12-10T11:10:18;25.90;;;13.30;;
14883;SDS011;7534;50.762;7.000;2022-12-10T11:18:22;25.43;;;13.60;;
14883;SDS011;7534;50.762;7.000;2022-12-10T11:20:59;21.80;;;12.53;;
14883;SDS011;7534;50.762;7.000;2022-12-10T11:23:37;23.33;;;13.13;;
14883;SDS011;7534;50.762;7.000;2022-12-10T11:34:51;20.60;;;12.67;;
14883;SDS011;7534;50.762;7.000;2022-12-10T11:40:33;21.20;;;12.87;;
14883;SDS011;7534;50.762;7.000;2022-12-10T11:43:25;23.23;;;13.20;;
14883;SDS011;7534;50.762;7.000;2022-12-10T11:45:59;24.23;;;13.97;;
14883;SDS011;7534;50.762;7.000;2022-12-10T11:54:58;21.30;;;12.40;;
14883;SDS011;7534;50.762;7.000;2022-12-10T12:15:37;33.45;;;21.08;;
14883;SDS011;7534;50.762;7.000;2022-12-10T12:18:20;29.50;;;17.00;;
14883;SDS011;7534;50.762;7.000;2022-12-10T12:20:59;29.07;;;16.13;;
14883;SDS011;7534;50.762;7.000;2022-12-10T12:31:43;22.37;;;13.17;;
14883;SDS011;7534;50.762;7.000;2022-12-10T12:34:33;22.70;;;13.20;;
14883;SDS011;7534;50.762;7.000;2022-12-10T12:37:06;20.77;;;12.90;;
14883;SDS011;7534;50.762;7.000;2022-12-10T12:39:50;21.57;;;13.20;;
14883;SDS011;7534;50.762;7.000;2022-12-10T12:42:40;24.60;;;13.33;;
14883;SDS011;7534;50.762;7.000;2022-12-10T12:45:21;21.30;;;12.33;;
14883;SDS011;7534;50.762;7.000;2022-12-10T12:53:44;24.63;;;15.25;;
14883;SDS011;7534;50.762;7.000;2022-12-10T13:02:22;26.30;;;18.55;;
14883;SDS011;7534;50.762;7.000;2022-12-10T13:05:21;23.43;;;14.30;;
14883;SDS011;7534;50.762;7.000;2022-12-10T13:08:22;24.40;;;14.10;;
14883;SDS011;7534;50.762;7.000;2022-12-10T13:14:28;27.70;;;14.23;;
14883;SDS011;7534;50.762;7.000;2022-12-10T13:19:15;24.10;;;13.63;;
14883;SDS011;7534;50.762;7.000;2022-12-10T13:38:17;24.90;;;14.27;;
14883;SDS011;7534;50.762;7.000;2022-12-10T13:43:26;23.70;;;13.93;;
14883;SDS011;7534;50.762;7.000;2022-12-10T13:48:55;23.97;;;13.03;;
14883;SDS011;7534;50.762;7.000;2022-12-10T13:51:36;22.90;;;12.83;;
14883;SDS011;7534;50.762;7.000;2022-12-10T13:57:30;22.73;;;12.77;;
14883;SDS011;7534;50.762;7.000;2022-12-10T14:00:23;21.67;;;12.60;;
14883;SDS011;7534;50.762;7.000;2022-12-10T14:03:07;22.73;;;13.37;;
14883;SDS011;7534;50.762;7.000;2022-12-10T14:06:16;23.27;;;12.80;;
14883;SDS011;7534;50.762;7.000;2022-12-10T14:11:51;22.73;;;12.57;;
14883;SDS011;7534;50.762;7.000;2022-12-10T14:15:24;31.77;;;17.57;;
14883;SDS011;7534;50.762;7.000;2022-12-10T14:17:43;25.23;;;14.30;;
14883;SDS011;7534;50.762;7.000;2022-12-10T14:20:15;24.27;;;12.90;;
14883;SDS011;7534;50.762;7.000;2022-12-10T14:22:48;25.03;;;14.03;;
14883;SDS011;7534;50.762;7.000;2022-12-10T14:25:18;27.37;;;14.50;;
14883;SDS011;7534;50.762;7.000;2022-12-10T14:27:48;33.33;;;19.80;;
14883;SDS011;7534;50.762;7.000;2022-12-10T14:30:24;75.10;;;48.90;;
14883;SDS011;7534;50.762;7.000;2022-12-10T14:32:55;31.80;;;20.53;;
14883;SDS011;7534;50.762;7.000;2022-12-10T14:35:25;29.13;;;17.20;;
14883;SDS011;7534;50.762;7.000;2022-12-10T14:37:54;24.53;;;15.20;;
14883;SDS011;7534;50.762;7.000;2022-12-10T14:40:31;27.37;;;14.50;;
14883;SDS011;7534;50.762;7.000;2022-12-10T14:43:06;26.47;;;14.83;;
14883;SDS011;7534;50.762;7.000;2022-12-10T14:45:47;27.50;;;14.53;;
14883;SDS011;7534;50.762;7.000;2022-12-10T14:48:23;27.53;;;14.87;;
14883;SDS011;7534;50.762;7.000;2022-12-10T14:50:50;26.90;;;14.37;;
14883;SDS011;7534;50.762;7.000;2022-12-10T14:53:18;28.80;;;15.43;;
14883;SDS011;7534;50.762;7.000;2022-12-10T14:55:49;26.40;;;14.83;;
14883;SDS011;7534;50.762;7.000;2022-12-10T14:58:27;26.00;;;14.90;;
14883;SDS011;7534;50.762;7.000;2022-12-10T15:01:25;28.47;;;15.03;;
14883;SDS011;7534;50.762;7.000;2022-12-10T15:03:56;27.10;;;15.33;;
14883;SDS011;7534;50.762;7.000;2022-12-10T15:06:27;27.87;;;15.47;;
14883;SDS011;7534;50.762;7.000;2022-12-10T15:08:54;27.57;;;14.93;;
14883;SDS011;7534;50.762;7.000;2022-12-10T15:11:23;26.73;;;14.90;;
14883;SDS011;7534;50.762;7.000;2022-12-10T15:13:56;27.33;;;15.30;;
14883;SDS011;7534;50.762;7.000;2022-12-10T15:16:29;28.77;;;15.57;;
14883;SDS011;7534;50.762;7.000;2022-12-10T15:19:16;29.43;;;16.27;;
14883;SDS011;7534;50.762;7.000;2022-12-10T15:21:50;27.37;;;15.27;;
14883;SDS011;7534;50.762;7.000;2022-12-10T15:24:27;27.30;;;14.63;;
14883;SDS011;7534;50.762;7.000;2022-12-10T15:27:13;28.07;;;14.90;;
14883;SDS011;7534;50.762;7.000;2022-12-10T15:29:50;26.73;;;15.07;;
14883;SDS011;7534;50.762;7.000;2022-12-10T15:34:58;28.93;;;14.87;;
14883;SDS011;7534;50.762;7.000;2022-12-10T15:37:38;29.17;;;16.90;;
14883;SDS011;7534;50.762;7.000;2022-12-10T15:40:06;27.33;;;16.10;;
14883;SDS011;7534;50.762;7.000;2022-12-10T15:42:46;29.90;;;15.90;;
14883;SDS011;7534;50.762;7.000;2022-12-10T15:45:23;30.07;;;16.20;;
14883;SDS011;7534;50.762;7.000;2022-12-10T15:48:03;27.40;;;15.50;;
14883;SDS011;7534;50.762;7.000;2022-12-10T15:50:39;33.53;;;22.23;;
14883;SDS011;7534;50.762;7.000;2022-12-10T15:53:12;33.30;;;18.93;;
14883;SDS011;7534;50.762;7.000;2022-12-10T15:55:41;39.40;;;25.37;;
14883;SDS011;7534;50.762;7.000;2022-12-10T15:58:10;33.47;;;20.53;;
14883;SDS011;7534;50.762;7.000;2022-12-10T16:00:38;34.43;;;19.37;;
14883;SDS011;7534;50.762;7.000;2022-12-10T16:03:09;34.33;;;18.43;;
14883;SDS011;7534;50.762;7.000;2022-12-10T16:05:38;36.53;;;20.37;;
14883;SDS011;7534;50.762;7.000;2022-12-10T16:10:43;33.00;;;19.03;;
14883;SDS011;7534;50.762;7.000;2022-12-10T16:13:16;33.27;;;18.93;;
14883;SDS011;7534;50.762;7.000;2022-12-10T16:15:46;32.70;;;18.20;;
14883;SDS011;7534;50.762;7.000;2022-12-10T16:18:17;37.60;;;18.80;;
14883;SDS011;7534;50.762;7.000;2022-12-10T16:20:44;31.27;;;17.77;;
14883;SDS011;7534;50.762;7.000;2022-12-10T16:23:10;32.57;;;18.63;;
14883;SDS011;7534;50.762;7.000;2022-12-10T16:25:39;33.73;;;18.47;;
14883;SDS011;7534;50.762;7.000;2022-12-10T16:28:14;34.53;;;18.60;;
14883;SDS011;7534;50.762;7.000;2022-12-10T16:30:47;33.13;;;18.83;;
14883;SDS011;7534;50.762;7.000;2022-12-10T16:33:20;34.60;;;18.10;;
14883;SDS011;7534;50.762;7.000;2022-12-10T16:35:50;32.97;;;17.37;;
14883;SDS011;7534;50.762;7.000;2022-12-10T16:38:27;29.03;;;16.97;;
14883;SDS011;7534;50.762;7.000;2022-12-10T16:40:53;34.93;;;18.97;;
14883;SDS011;7534;50.762;7.000;2022-12-10T16:43:23;35.40;;;18.50;;
14883;SDS011;7534;50.762;7.000;2022-12-10T16:45:51;37.80;;;19.67;;
14883;SDS011;7534;50.762;7.000;2022-12-10T16:48:17;35.83;;;18.17;;
14883;SDS011;7534;50.762;7.000;2022-12-10T16:50:44;32.37;;;17.87;;
14883;SDS011;7534;50.762;7.000;2022-12-10T16:53:20;33.53;;;18.77;;
14883;SDS011;7534;50.762;7.000;2022-12-10T16:55:50;32.90;;;19.17;;
14883;SDS011;7534;50.762;7.000;2022-12-10T16:58:18;34.43;;;17.90;;
14883;SDS011;7534;50.762;7.000;2022-12-10T17:00:45;30.63;;;17.30;;
14883;SDS011;7534;50.762;7.000;2022-12-10T17:03:16;30.90;;;17.80;;
14883;SDS011;7534;50.762;7.000;2022-12-10T17:05:51;35.27;;;17.63;;
14883;SDS011;7534;50.762;7.000;2022-12-10T17:08:19;32.10;;;17.13;;